createdAt,value
2022-09-04T00:08:46.271Z,31.95
2022-09-04T00:23:48.720Z,31.83
2022-09-04T00:38:51.104Z,32.14
2022-09-04T00:53:53.450Z,31.69
2022-09-04T01:08:56.101Z,31.32
2022-09-04T01:23:58.957Z,30.53
2022-09-04T01:39:04.112Z,29.87
2022-09-04T01:54:06.471Z,29.93
2022-09-04T02:09:08.849Z,29.83
2022-09-04T02:24:11.124Z,29.83
2022-09-04T02:39:13.673Z,29.6
2022-09-04T02:54:16.006Z,28.33
2022-09-04T03:09:18.548Z,26.84
2022-09-04T03:24:20.802Z,26.79
2022-09-04T03:39:23.179Z,26.25
2022-09-04T03:54:25.486Z,25.71
2022-09-04T04:09:27.793Z,25.37
2022-09-04T04:24:30.186Z,23.83
2022-09-04T04:39:32.566Z,24.65
2022-09-04T04:54:34.970Z,23.46
2022-09-04T05:09:37.301Z,23.72
2022-09-04T05:24:39.667Z,22.9
2022-09-04T05:39:42.023Z,23.29
2022-09-04T05:54:44.582Z,23.16
2022-09-04T06:09:46.992Z,23.12
2022-09-04T06:24:49.314Z,22.78
2022-09-04T06:39:51.694Z,21.87
2022-09-04T06:54:54.049Z,22.18
2022-09-04T07:10:01.037Z,21.92
2022-09-04T07:25:03.770Z,21.73
2022-09-04T07:40:08.173Z,21.33
2022-09-04T07:55:10.960Z,21.57
2022-09-04T08:10:13.251Z,21.1
2022-09-04T08:25:15.632Z,20.65
2022-09-04T08:40:17.997Z,20.11
2022-09-04T08:55:20.420Z,20.73
2022-09-04T09:10:22.745Z,20.33
2022-09-04T09:25:25.078Z,20.28
2022-09-04T09:40:27.363Z,19.86
2022-09-04T09:55:29.695Z,20.03
2022-09-04T10:10:32.014Z,19.84
2022-09-04T10:25:34.496Z,19.78
2022-09-04T10:40:42.334Z,19.19
2022-09-04T10:55:46.238Z,19.32
2022-09-04T11:10:48.509Z,19.17
2022-09-04T11:25:51.069Z,18.88
2022-09-04T11:40:53.389Z,18.61
2022-09-04T11:55:55.662Z,18.43
2022-09-04T12:10:57.911Z,18.75
2022-09-04T12:26:00.432Z,18.54
2022-09-04T12:41:03.169Z,18.6
2022-09-04T12:56:05.511Z,18.57
2022-09-04T13:11:07.876Z,18.14
2022-09-04T13:26:10.222Z,18.26
2022-09-04T13:41:12.555Z,17.99
2022-09-04T13:56:14.929Z,18.35
2022-09-04T14:11:17.273Z,18.33
2022-09-04T14:26:19.809Z,19.03
2022-09-04T14:41:22.730Z,19.21
2022-09-04T14:56:25.170Z,20.15
2022-09-04T15:11:31.156Z,27.11
2022-09-04T15:26:33.881Z,24.17
2022-09-04T15:41:36.204Z,22.78
2022-09-04T15:56:38.510Z,22.6
2022-09-04T16:11:40.768Z,24.89
2022-09-04T16:26:43.107Z,24.97
2022-09-04T16:41:45.429Z,26.11
2022-09-04T16:56:47.799Z,26.25
2022-09-04T17:11:55.715Z,25.52
2022-09-04T17:29:16.881Z,27.21
2022-09-04T17:44:30.117Z,27.66
2022-09-04T17:59:33.848Z,28.64
2022-09-04T18:14:36.167Z,28.95
2022-09-04T18:33:14.061Z,29.62
2022-09-04T18:52:17.002Z,30.4
2022-09-04T19:07:19.315Z,30.47
2022-09-04T19:22:26.314Z,30.58
2022-09-04T19:39:08.616Z,30.99
2022-09-04T20:01:00.493Z,33.26
2022-09-04T20:16:02.899Z,33.93
2022-09-04T20:31:05.243Z,33.9
2022-09-04T20:52:44.231Z,34.12
2022-09-04T21:08:03.659Z,34.73
2022-09-04T21:23:05.986Z,36.08
2022-09-04T21:38:08.377Z,35.53
2022-09-04T21:53:13.777Z,34.01
2022-09-04T22:13:29.185Z,36.06
2022-09-04T22:28:47.241Z,36.11
2022-09-04T22:43:49.462Z,35.77
2022-09-04T22:58:51.674Z,35.32
2022-09-04T23:14:05.210Z,35.2
2022-09-04T23:29:08.868Z,34.71
2022-09-04T23:44:11.478Z,33.87
2022-09-04T23:59:16.763Z,33.65
